sensor_id;sensor_type;location;lat;lon;timestamp;pressure;altitude;pressure_sealevel;temperature;humidity
18697;BME280;22617;43.690;27.956;2023-02-13T00:00:54;100835.25;;;-1.99;75.85
18697;BME280;22617;43.690;27.956;2023-02-13T00:05:59;100840.34;;;-1.99;75.72
18697;BME280;22617;43.690;27.956;2023-02-13T00:11:03;100843.63;;;-2.24;75.98
18697;BME280;22617;43.690;27.956;2023-02-13T00:16:06;100843.59;;;-2.35;76.40
18697;BME280;22617;43.690;27.956;2023-02-13T00:21:14;100848.22;;;-2.41;77.18
18697;BME280;22617;43.690;27.956;2023-02-13T00:26:18;100832.44;;;-2.47;77.52
18697;BME280;22617;43.690;27.956;2023-02-13T00:31:22;100834.75;;;-2.50;77.73
18697;BME280;22617;43.690;27.956;2023-02-13T00:36:27;100827.78;;;-2.41;77.54
18697;BME280;22617;43.690;27.956;2023-02-13T00:41:31;100826.22;;;-2.39;77.79
18697;BME280;22617;43.690;27.956;2023-02-13T00:46:34;100834.16;;;-2.25;77.66
18697;BME280;22617;43.690;27.956;2023-02-13T00:51:41;100826.50;;;-2.36;77.53
18697;BME280;22617;43.690;27.956;2023-02-13T00:56:44;100831.53;;;-2.48;77.26
18697;BME280;22617;43.690;27.956;2023-02-13T01:01:48;100830.19;;;-2.54;77.54
18697;BME280;22617;43.690;27.956;2023-02-13T01:06:53;100838.63;;;-2.55;77.26
18697;BME280;22617;43.690;27.956;2023-02-13T01:11:56;100837.59;;;-2.57;77.10
18697;BME280;22617;43.690;27.956;2023-02-13T01:17:00;100830.53;;;-2.50;77.27
18697;BME280;22617;43.690;27.956;2023-02-13T01:22:06;100838.72;;;-2.32;76.74
18697;BME280;22617;43.690;27.956;2023-02-13T01:27:10;100841.81;;;-2.25;76.01
18697;BME280;22617;43.690;27.956;2023-02-13T01:32:14;100851.63;;;-2.74;75.93
18697;BME280;22617;43.690;27.956;2023-02-13T01:37:20;100849.16;;;-2.73;76.06
18697;BME280;22617;43.690;27.956;2023-02-13T01:42:28;100847.84;;;-2.68;76.21
18697;BME280;22617;43.690;27.956;2023-02-13T01:47:37;100850.34;;;-2.57;75.97
18697;BME280;22617;43.690;27.956;2023-02-13T01:52:47;100850.91;;;-2.61;75.58
18697;BME280;22617;43.690;27.956;2023-02-13T01:57:54;100844.34;;;-2.58;75.62
18697;BME280;22617;43.690;27.956;2023-02-13T02:03:02;100851.91;;;-2.59;75.51
18697;BME280;22617;43.690;27.956;2023-02-13T02:08:11;100845.56;;;-2.65;75.03
18697;BME280;22617;43.690;27.956;2023-02-13T02:13:18;100841.63;;;-2.93;75.01
18697;BME280;22617;43.690;27.956;2023-02-13T02:18:23;100848.50;;;-2.92;75.63
18697;BME280;22617;43.690;27.956;2023-02-13T02:29:15;100849.53;;;-2.90;74.77
18697;BME280;22617;43.690;27.956;2023-02-13T02:34:32;100846.41;;;-3.08;74.49
18697;BME280;22617;43.690;27.956;2023-02-13T02:39:45;100845.97;;;-3.24;74.79
18697;BME280;22617;43.690;27.956;2023-02-13T02:44:56;100852.75;;;-3.34;75.21
18697;BME280;22617;43.690;27.956;2023-02-13T02:50:15;100846.34;;;-3.29;75.98
18697;BME280;22617;43.690;27.956;2023-02-13T02:55:34;100853.81;;;-3.11;75.96
18697;BME280;22617;43.690;27.956;2023-02-13T03:00:41;100864.66;;;-3.13;75.46
18697;BME280;22617;43.690;27.956;2023-02-13T03:06:10;100858.22;;;-3.40;75.63
18697;BME280;22617;43.690;27.956;2023-02-13T03:11:15;100857.41;;;-3.50;75.82
18697;BME280;22617;43.690;27.956;2023-02-13T03:16:38;100861.31;;;-3.44;76.38
18697;BME280;22617;43.690;27.956;2023-02-13T03:22:07;100866.22;;;-3.25;76.08
18697;BME280;22617;43.690;27.956;2023-02-13T03:27:30;100858.44;;;-3.17;75.84
18697;BME280;22617;43.690;27.956;2023-02-13T03:33:00;100867.25;;;-3.23;75.16
18697;BME280;22617;43.690;27.956;2023-02-13T03:38:11;100864.84;;;-3.22;75.08
18697;BME280;22617;43.690;27.956;2023-02-13T03:43:16;100867.09;;;-3.15;75.13
18697;BME280;22617;43.690;27.956;2023-02-13T03:48:24;100858.81;;;-3.12;74.89
18697;BME280;22617;43.690;27.956;2023-02-13T03:53:51;100860.06;;;-3.07;74.66
18697;BME280;22617;43.690;27.956;2023-02-13T03:58:58;100862.88;;;-3.14;74.12
18697;BME280;22617;43.690;27.956;2023-02-13T04:04:22;100854.69;;;-3.10;74.13
18697;BME280;22617;43.690;27.956;2023-02-13T04:09:31;100861.31;;;-3.44;73.58
18697;BME280;22617;43.690;27.956;2023-02-13T04:14:39;100868.34;;;-3.52;73.83
18697;BME280;22617;43.690;27.956;2023-02-13T04:19:46;100875.31;;;-3.39;74.34
18697;BME280;22617;43.690;27.956;2023-02-13T04:24:51;100879.25;;;-3.22;74.41
18697;BME280;22617;43.690;27.956;2023-02-13T04:29:54;100876.97;;;-3.39;73.17
18697;BME280;22617;43.690;27.956;2023-02-13T04:34:58;100890.53;;;-3.50;72.93
18697;BME280;22617;43.690;27.956;2023-02-13T04:40:06;100883.00;;;-3.69;73.09
18697;BME280;22617;43.690;27.956;2023-02-13T04:45:09;100880.72;;;-3.56;73.63
18697;BME280;22617;43.690;27.956;2023-02-13T04:50:13;100866.94;;;-3.48;73.46
18697;BME280;22617;43.690;27.956;2023-02-13T04:55:18;100877.66;;;-3.72;72.71
18697;BME280;22617;43.690;27.956;2023-02-13T05:00:22;100872.19;;;-3.77;72.44
18697;BME280;22617;43.690;27.956;2023-02-13T05:05:26;100885.44;;;-3.91;72.92
18697;BME280;22617;43.690;27.956;2023-02-13T05:10:32;100893.97;;;-4.21;72.50
18697;BME280;22617;43.690;27.956;2023-02-13T05:15:35;100889.53;;;-4.03;73.63
18697;BME280;22617;43.690;27.956;2023-02-13T05:20:42;100894.25;;;-4.08;72.39
18697;BME280;22617;43.690;27.956;2023-02-13T05:25:47;100884.56;;;-4.02;73.01
18697;BME280;22617;43.690;27.956;2023-02-13T05:30:52;100881.63;;;-4.16;72.69
18697;BME280;22617;43.690;27.956;2023-02-13T05:35:57;100880.13;;;-3.94;73.40
18697;BME280;22617;43.690;27.956;2023-02-13T05:41:01;100886.22;;;-3.72;73.48
18697;BME280;22617;43.690;27.956;2023-02-13T05:46:07;100886.19;;;-3.52;73.14
18697;BME280;22617;43.690;27.956;2023-02-13T05:51:11;100889.97;;;-3.36;72.89
18697;BME280;22617;43.690;27.956;2023-02-13T05:56:16;100906.06;;;-3.47;72.69
18697;BME280;22617;43.690;27.956;2023-02-13T06:01:20;100907.19;;;-3.44;73.62
18697;BME280;22617;43.690;27.956;2023-02-13T06:06:23;100910.44;;;-3.15;73.99
18697;BME280;22617;43.690;27.956;2023-02-13T06:11:28;100906.66;;;-2.88;73.78
18697;BME280;22617;43.690;27.956;2023-02-13T06:16:32;100908.78;;;-2.50;73.68
18697;BME280;22617;43.690;27.956;2023-02-13T06:21:36;100905.38;;;-2.39;73.47
18697;BME280;22617;43.690;27.956;2023-02-13T06:26:41;100904.91;;;-2.24;73.52
18697;BME280;22617;43.690;27.956;2023-02-13T06:31:44;100901.63;;;-2.33;73.90
18697;BME280;22617;43.690;27.956;2023-02-13T06:36:48;100900.56;;;-2.25;74.53
18697;BME280;22617;43.690;27.956;2023-02-13T06:41:53;100901.16;;;-2.17;74.68
18697;BME280;22617;43.690;27.956;2023-02-13T06:46:56;100907.50;;;-2.34;75.85
18697;BME280;22617;43.690;27.956;2023-02-13T06:52:00;100897.44;;;-1.99;75.97
18697;BME280;22617;43.690;27.956;2023-02-13T06:57:05;100908.19;;;-1.69;75.72
18697;BME280;22617;43.690;27.956;2023-02-13T07:02:09;100907.97;;;-1.61;75.28
18697;BME280;22617;43.690;27.956;2023-02-13T07:07:13;100895.91;;;-1.40;75.15
18697;BME280;22617;43.690;27.956;2023-02-13T07:12:18;100889.22;;;-1.15;74.84
18697;BME280;22617;43.690;27.956;2023-02-13T07:17:21;100892.56;;;-0.93;74.82
18697;BME280;22617;43.690;27.956;2023-02-13T07:22:27;100896.53;;;-0.84;74.83
18697;BME280;22617;43.690;27.956;2023-02-13T07:27:31;100895.28;;;-0.66;74.55
18697;BME280;22617;43.690;27.956;2023-02-13T07:32:35;100901.06;;;-0.57;74.57
18697;BME280;22617;43.690;27.956;2023-02-13T07:37:38;100895.72;;;-0.60;74.18
18697;BME280;22617;43.690;27.956;2023-02-13T07:42:43;100890.78;;;-0.34;75.00
18697;BME280;22617;43.690;27.956;2023-02-13T07:47:48;100889.91;;;-0.10;74.75
18697;BME280;22617;43.690;27.956;2023-02-13T07:52:54;100883.84;;;0.15;73.39
18697;BME280;22617;43.690;27.956;2023-02-13T07:58:00;100885.41;;;0.51;73.10
18697;BME280;22617;43.690;27.956;2023-02-13T08:03:03;100881.88;;;0.75;71.61
18697;BME280;22617;43.690;27.956;2023-02-13T08:08:07;100879.59;;;1.06;72.33
18697;BME280;22617;43.690;27.956;2023-02-13T08:13:13;100877.22;;;1.22;71.59
18697;BME280;22617;43.690;27.956;2023-02-13T08:18:18;100875.00;;;1.41;70.79
18697;BME280;22617;43.690;27.956;2023-02-13T08:23:21;100891.41;;;1.43;71.95
18697;BME280;22617;43.690;27.956;2023-02-13T08:28:26;100891.38;;;1.84;70.80
18697;BME280;22617;43.690;27.956;2023-02-13T08:33:30;100882.47;;;2.07;69.54
18697;BME280;22617;43.690;27.956;2023-02-13T08:38:34;100872.06;;;2.48;67.68
18697;BME280;22617;43.690;27.956;2023-02-13T08:43:39;100871.28;;;2.63;67.58
18697;BME280;22617;43.690;27.956;2023-02-13T08:48:43;100855.25;;;3.62;66.48
18697;BME280;22617;43.690;27.956;2023-02-13T08:53:46;100863.66;;;2.96;68.06
18697;BME280;22617;43.690;27.956;2023-02-13T08:58:51;100863.91;;;3.15;67.00
18697;BME280;22617;43.690;27.956;2023-02-13T09:03:55;100853.78;;;3.34;64.04
18697;BME280;22617;43.690;27.956;2023-02-13T09:08:59;100845.03;;;4.46;61.82
18697;BME280;22617;43.690;27.956;2023-02-13T09:14:04;100849.69;;;4.53;61.26
18697;BME280;22617;43.690;27.956;2023-02-13T09:19:07;100838.84;;;4.95;62.52
18697;BME280;22617;43.690;27.956;2023-02-13T09:24:11;100836.88;;;5.44;60.85
18697;BME280;22617;43.690;27.956;2023-02-13T09:29:16;100834.00;;;6.55;58.21
18697;BME280;22617;43.690;27.956;2023-02-13T09:34:19;100844.59;;;7.03;56.56
18697;BME280;22617;43.690;27.956;2023-02-13T09:39:23;100825.91;;;6.68;55.67
18697;BME280;22617;43.690;27.956;2023-02-13T09:44:30;100813.78;;;7.78;54.37
18697;BME280;22617;43.690;27.956;2023-02-13T09:49:40;100804.34;;;7.34;53.60
18697;BME280;22617;43.690;27.956;2023-02-13T09:54:46;100800.06;;;7.82;51.42
18697;BME280;22617;43.690;27.956;2023-02-13T09:59:57;100794.22;;;8.37;51.26
18697;BME280;22617;43.690;27.956;2023-02-13T10:05:18;100784.69;;;8.90;48.89
18697;BME280;22617;43.690;27.956;2023-02-13T10:10:31;100781.28;;;9.19;49.46
18697;BME280;22617;43.690;27.956;2023-02-13T10:15:41;100781.06;;;9.13;49.08
18697;BME280;22617;43.690;27.956;2023-02-13T10:20:47;100762.66;;;9.35;48.27
18697;BME280;22617;43.690;27.956;2023-02-13T10:25:56;100753.38;;;10.39;47.06
18697;BME280;22617;43.690;27.956;2023-02-13T10:31:05;100747.91;;;9.97;46.58
18697;BME280;22617;43.690;27.956;2023-02-13T10:36:15;100738.81;;;10.83;45.39
18697;BME280;22617;43.690;27.956;2023-02-13T10:41:30;100728.59;;;9.89;45.68
18697;BME280;22617;43.690;27.956;2023-02-13T10:46:47;100725.22;;;9.93;45.37
18697;BME280;22617;43.690;27.956;2023-02-13T10:51:59;100721.88;;;10.31;46.54
18697;BME280;22617;43.690;27.956;2023-02-13T10:57:11;100714.88;;;10.65;46.64
18697;BME280;22617;43.690;27.956;2023-02-13T11:02:22;100699.88;;;10.92;46.32
18697;BME280;22617;43.690;27.956;2023-02-13T11:07:27;100709.69;;;9.96;46.65
18697;BME280;22617;43.690;27.956;2023-02-13T11:12:33;100704.19;;;10.18;48.18
18697;BME280;22617;43.690;27.956;2023-02-13T11:17:39;100695.97;;;10.03;48.14
18697;BME280;22617;43.690;27.956;2023-02-13T11:22:45;100676.28;;;10.87;46.46
18697;BME280;22617;43.690;27.956;2023-02-13T11:27:50;100673.47;;;10.78;46.18
18697;BME280;22617;43.690;27.956;2023-02-13T11:33:00;100672.91;;;10.17;48.12
18697;BME280;22617;43.690;27.956;2023-02-13T11:38:21;100676.63;;;10.28;47.69
18697;BME280;22617;43.690;27.956;2023-02-13T11:43:29;100663.94;;;10.41;48.29
18697;BME280;22617;43.690;27.956;2023-02-13T11:48:37;100659.47;;;10.75;47.80
18697;BME280;22617;43.690;27.956;2023-02-13T11:53:40;100654.78;;;10.60;47.40
18697;BME280;22617;43.690;27.956;2023-02-13T11:58:44;100638.66;;;10.03;48.25
18697;BME280;22617;43.690;27.956;2023-02-13T12:04:01;100627.38;;;10.38;50.02
18697;BME280;22617;43.690;27.956;2023-02-13T12:09:11;100629.16;;;9.71;49.30
18697;BME280;22617;43.690;27.956;2023-02-13T12:14:19;100627.34;;;10.01;51.61
18697;BME280;22617;43.690;27.956;2023-02-13T12:19:28;100620.69;;;10.49;50.47
18697;BME280;22617;43.690;27.956;2023-02-13T12:24:47;100626.34;;;10.71;48.91
18697;BME280;22617;43.690;27.956;2023-02-13T12:30:16;100616.94;;;11.19;48.92
18697;BME280;22617;43.690;27.956;2023-02-13T12:35:42;100602.59;;;10.98;48.65
18697;BME280;22617;43.690;27.956;2023-02-13T12:41:03;100594.28;;;11.18;49.65
18697;BME280;22617;43.690;27.956;2023-02-13T12:46:16;100592.16;;;10.98;49.91
18697;BME280;22617;43.690;27.956;2023-02-13T12:51:33;100590.03;;;10.78;49.46
18697;BME280;22617;43.690;27.956;2023-02-13T12:57:01;100589.69;;;10.24;49.24
18697;BME280;22617;43.690;27.956;2023-02-13T13:02:31;100583.44;;;9.82;50.84
18697;BME280;22617;43.690;27.956;2023-02-13T13:07:56;100590.41;;;9.83;50.99
18697;BME280;22617;43.690;27.956;2023-02-13T13:13:07;100574.81;;;9.84;51.21
18697;BME280;22617;43.690;27.956;2023-02-13T13:18:23;100569.97;;;9.29;51.63
18697;BME280;22617;43.690;27.956;2023-02-13T13:23:33;100579.25;;;9.21;53.87
18697;BME280;22617;43.690;27.956;2023-02-13T13:28:41;100574.19;;;8.64;53.30
18697;BME280;22617;43.690;27.956;2023-02-13T13:33:47;100568.72;;;8.27;54.26
18697;BME280;22617;43.690;27.956;2023-02-13T13:38:56;100560.94;;;8.55;55.07
18697;BME280;22617;43.690;27.956;2023-02-13T13:44:30;100557.19;;;8.17;54.34
18697;BME280;22617;43.690;27.956;2023-02-13T13:49:42;100549.66;;;7.98;54.99
18697;BME280;22617;43.690;27.956;2023-02-13T13:54:55;100545.84;;;7.87;55.71
18697;BME280;22617;43.690;27.956;2023-02-13T14:05:29;100548.59;;;7.65;55.66
18697;BME280;22617;43.690;27.956;2023-02-13T14:11:02;100528.94;;;7.46;55.81
18697;BME280;22617;43.690;27.956;2023-02-13T14:16:09;100527.59;;;7.32;55.91
18697;BME280;22617;43.690;27.956;2023-02-13T14:21:21;100528.34;;;7.28;56.50
18697;BME280;22617;43.690;27.956;2023-02-13T14:26:36;100528.41;;;7.06;57.08
18697;BME280;22617;43.690;27.956;2023-02-13T14:31:42;100529.16;;;7.01;57.43
18697;BME280;22617;43.690;27.956;2023-02-13T14:37:04;100518.47;;;6.92;57.86
18697;BME280;22617;43.690;27.956;2023-02-13T14:42:22;100509.22;;;6.75;59.02
18697;BME280;22617;43.690;27.956;2023-02-13T14:47:31;100509.88;;;6.70;59.59
18697;BME280;22617;43.690;27.956;2023-02-13T14:52:38;100500.59;;;6.76;58.90
18697;BME280;22617;43.690;27.956;2023-02-13T14:57:49;100504.06;;;6.51;59.39
18697;BME280;22617;43.690;27.956;2023-02-13T15:02:58;100514.28;;;6.48;59.70
18697;BME280;22617;43.690;27.956;2023-02-13T15:08:11;100502.81;;;6.18;60.14
18697;BME280;22617;43.690;27.956;2023-02-13T15:13:20;100508.13;;;5.78;61.58
18697;BME280;22617;43.690;27.956;2023-02-13T15:18:26;100511.78;;;5.62;61.96
18697;BME280;22617;43.690;27.956;2023-02-13T15:23:32;100516.94;;;5.40;61.87
18697;BME280;22617;43.690;27.956;2023-02-13T15:28:37;100506.03;;;5.26;62.29
18697;BME280;22617;43.690;27.956;2023-02-13T15:33:43;100508.47;;;5.23;62.88
18697;BME280;22617;43.690;27.956;2023-02-13T15:38:48;100517.31;;;5.08;62.79
18697;BME280;22617;43.690;27.956;2023-02-13T15:43:56;100516.78;;;4.96;63.33
18697;BME280;22617;43.690;27.956;2023-02-13T15:49:04;100517.16;;;4.84;63.52
18697;BME280;22617;43.690;27.956;2023-02-13T15:54:22;100509.44;;;4.46;64.44
18697;BME280;22617;43.690;27.956;2023-02-13T15:59:31;100510.34;;;4.28;63.79
18697;BME280;22617;43.690;27.956;2023-02-13T16:04:36;100518.34;;;3.96;65.12
18697;BME280;22617;43.690;27.956;2023-02-13T16:09:40;100516.94;;;3.85;64.83
18697;BME280;22617;43.690;27.956;2023-02-13T16:14:48;100523.22;;;3.72;65.63
18697;BME280;22617;43.690;27.956;2023-02-13T16:19:57;100526.97;;;3.61;66.03
18697;BME280;22617;43.690;27.956;2023-02-13T16:25:15;100524.41;;;3.43;66.62
18697;BME280;22617;43.690;27.956;2023-02-13T16:30:39;100523.34;;;3.22;66.85
18697;BME280;22617;43.690;27.956;2023-02-13T16:35:44;100518.16;;;3.04;66.88
18697;BME280;22617;43.690;27.956;2023-02-13T16:40:50;100516.25;;;2.84;67.09
18697;BME280;22617;43.690;27.956;2023-02-13T16:46:09;100512.28;;;2.73;67.64
18697;BME280;22617;43.690;27.956;2023-02-13T16:51:13;100515.56;;;2.71;67.45
18697;BME280;22617;43.690;27.956;2023-02-13T16:56:17;100507.03;;;2.55;67.49
18697;BME280;22617;43.690;27.956;2023-02-13T17:01:23;100510.13;;;2.32;68.36
18697;BME280;22617;43.690;27.956;2023-02-13T17:06:26;100516.44;;;2.06;69.10
18697;BME280;22617;43.690;27.956;2023-02-13T17:11:37;100505.44;;;2.09;69.45
18697;BME280;22617;43.690;27.956;2023-02-13T17:16:42;100490.31;;;1.99;70.00
18697;BME280;22617;43.690;27.956;2023-02-13T17:21:45;100502.69;;;1.90;69.67
18697;BME280;22617;43.690;27.956;2023-02-13T17:26:49;100497.03;;;1.81;70.84
18697;BME280;22617;43.690;27.956;2023-02-13T17:31:55;100500.50;;;1.81;70.77
18697;BME280;22617;43.690;27.956;2023-02-13T17:36:59;100492.50;;;1.60;70.46
18697;BME280;22617;43.690;27.956;2023-02-13T17:42:03;100489.31;;;1.50;71.03
18697;BME280;22617;43.690;27.956;2023-02-13T17:47:09;100468.22;;;1.55;71.93
18697;BME280;22617;43.690;27.956;2023-02-13T17:52:15;100465.75;;;1.57;71.92
18697;BME280;22617;43.690;27.956;2023-02-13T17:57:20;100459.56;;;1.53;72.02
18697;BME280;22617;43.690;27.956;2023-02-13T18:02:25;100460.16;;;1.49;71.80
18697;BME280;22617;43.690;27.956;2023-02-13T18:07:31;100464.38;;;1.33;71.13
18697;BME280;22617;43.690;27.956;2023-02-13T18:12:37;100460.03;;;1.31;71.79
18697;BME280;22617;43.690;27.956;2023-02-13T18:17:42;100452.00;;;1.25;71.53
18697;BME280;22617;43.690;27.956;2023-02-13T18:22:46;100461.06;;;1.19;72.17
18697;BME280;22617;43.690;27.956;2023-02-13T18:27:51;100455.94;;;1.04;71.54
18697;BME280;22617;43.690;27.956;2023-02-13T18:32:57;100456.81;;;0.90;72.19
18697;BME280;22617;43.690;27.956;2023-02-13T18:38:05;100459.66;;;0.95;72.46
18697;BME280;22617;43.690;27.956;2023-02-13T18:43:09;100451.25;;;0.82;72.74
18697;BME280;22617;43.690;27.956;2023-02-13T18:48:19;100455.84;;;0.88;72.46
18697;BME280;22617;43.690;27.956;2023-02-13T18:53:22;100446.38;;;0.87;72.90
18697;BME280;22617;43.690;27.956;2023-02-13T18:58:26;100432.94;;;0.76;72.41
18697;BME280;22617;43.690;27.956;2023-02-13T19:03:31;100444.50;;;0.40;72.98
18697;BME280;22617;43.690;27.956;2023-02-13T19:08:35;100442.81;;;0.41;73.28
18697;BME280;22617;43.690;27.956;2023-02-13T19:13:39;100431.84;;;0.58;73.65
18697;BME280;22617;43.690;27.956;2023-02-13T19:18:47;100431.53;;;0.81;73.99
18697;BME280;22617;43.690;27.956;2023-02-13T19:23:53;100436.56;;;0.95;73.53
18697;BME280;22617;43.690;27.956;2023-02-13T19:28:57;100431.69;;;0.99;72.73
18697;BME280;22617;43.690;27.956;2023-02-13T19:34:02;100427.63;;;0.88;72.59
18697;BME280;22617;43.690;27.956;2023-02-13T19:39:06;100422.06;;;0.95;73.32
18697;BME280;22617;43.690;27.956;2023-02-13T19:44:10;100419.47;;;1.10;73.21
18697;BME280;22617;43.690;27.956;2023-02-13T19:49:15;100408.19;;;1.22;73.28
18697;BME280;22617;43.690;27.956;2023-02-13T19:54:19;100415.44;;;1.29;74.28
18697;BME280;22617;43.690;27.956;2023-02-13T19:59:23;100401.31;;;1.38;74.70
18697;BME280;22617;43.690;27.956;2023-02-13T20:04:28;100394.81;;;1.44;75.13
18697;BME280;22617;43.690;27.956;2023-02-13T20:09:33;100384.78;;;1.49;75.42
18697;BME280;22617;43.690;27.956;2023-02-13T20:14:38;100376.59;;;1.40;75.70
18697;BME280;22617;43.690;27.956;2023-02-13T20:19:44;100370.25;;;1.33;75.68
18697;BME280;22617;43.690;27.956;2023-02-13T20:24:48;100360.44;;;1.26;76.03
18697;BME280;22617;43.690;27.956;2023-02-13T20:29:52;100354.75;;;1.31;76.25
18697;BME280;22617;43.690;27.956;2023-02-13T20:35:09;100347.63;;;1.42;76.64
18697;BME280;22617;43.690;27.956;2023-02-13T20:40:13;100334.63;;;1.55;76.81
18697;BME280;22617;43.690;27.956;2023-02-13T20:45:17;100346.84;;;1.59;76.97
18697;BME280;22617;43.690;27.956;2023-02-13T20:50:22;100335.13;;;1.48;76.91
18697;BME280;22617;43.690;27.956;2023-02-13T20:55:26;100334.78;;;1.42;77.27
18697;BME280;22617;43.690;27.956;2023-02-13T21:00:30;100324.28;;;1.38;77.28
18697;BME280;22617;43.690;27.956;2023-02-13T21:05:35;100313.91;;;1.36;77.54
18697;BME280;22617;43.690;27.956;2023-02-13T21:10:39;100320.56;;;1.33;78.51
18697;BME280;22617;43.690;27.956;2023-02-13T21:15:42;100315.84;;;1.40;78.59
18697;BME280;22617;43.690;27.956;2023-02-13T21:20:51;100332.03;;;1.39;78.80
18697;BME280;22617;43.690;27.956;2023-02-13T21:26:00;100330.78;;;1.47;79.21
18697;BME280;22617;43.690;27.956;2023-02-13T21:31:07;100330.69;;;1.29;78.79
18697;BME280;22617;43.690;27.956;2023-02-13T21:36:13;100345.75;;;1.23;78.66
18697;BME280;22617;43.690;27.956;2023-02-13T21:41:17;100341.41;;;1.22;78.62
18697;BME280;22617;43.690;27.956;2023-02-13T21:46:23;100344.72;;;1.20;78.56
18697;BME280;22617;43.690;27.956;2023-02-13T21:51:30;100337.06;;;1.21;78.13
18697;BME280;22617;43.690;27.956;2023-02-13T21:56:37;100338.25;;;1.12;78.57
18697;BME280;22617;43.690;27.956;2023-02-13T22:01:40;100341.38;;;1.06;78.62
18697;BME280;22617;43.690;27.956;2023-02-13T22:06:49;100345.22;;;0.98;79.02
18697;BME280;22617;43.690;27.956;2023-02-13T22:11:54;100350.88;;;0.93;79.40
18697;BME280;22617;43.690;27.956;2023-02-13T22:16:57;100350.09;;;0.94;80.06
18697;BME280;22617;43.690;27.956;2023-02-13T22:22:02;100343.81;;;0.88;80.38
18697;BME280;22617;43.690;27.956;2023-02-13T22:27:06;100341.63;;;0.80;80.55
18697;BME280;22617;43.690;27.956;2023-02-13T22:32:09;100334.03;;;0.81;81.08
18697;BME280;22617;43.690;27.956;2023-02-13T22:37:14;100332.56;;;0.86;81.49
18697;BME280;22617;43.690;27.956;2023-02-13T22:42:17;100316.31;;;0.86;81.81
18697;BME280;22617;43.690;27.956;2023-02-13T22:47:21;100330.19;;;0.90;82.04
18697;BME280;22617;43.690;27.956;2023-02-13T22:52:26;100334.47;;;0.74;81.17
18697;BME280;22617;43.690;27.956;2023-02-13T22:57:30;100330.31;;;0.76;80.86
18697;BME280;22617;43.690;27.956;2023-02-13T23:02:34;100344.31;;;0.67;81.08
18697;BME280;22617;43.690;27.956;2023-02-13T23:07:39;100346.00;;;0.66;81.27
18697;BME280;22617;43.690;27.956;2023-02-13T23:12:43;100347.03;;;0.70;81.79
18697;BME280;22617;43.690;27.956;2023-02-13T23:17:47;100338.59;;;0.72;82.22
18697;BME280;22617;43.690;27.956;2023-02-13T23:23:09;100341.28;;;0.74;82.33
18697;BME280;22617;43.690;27.956;2023-02-13T23:28:13;100343.31;;;0.79;82.26
18697;BME280;22617;43.690;27.956;2023-02-13T23:33:16;100340.66;;;0.78;82.34
18697;BME280;22617;43.690;27.956;2023-02-13T23:38:22;100336.03;;;0.72;81.86
18697;BME280;22617;43.690;27.956;2023-02-13T23:43:25;100337.56;;;0.69;81.62
18697;BME280;22617;43.690;27.956;2023-02-13T23:48:29;100327.69;;;0.60;81.45
18697;BME280;22617;43.690;27.956;2023-02-13T23:53:35;100324.22;;;0.60;81.82
18697;BME280;22617;43.690;27.956;2023-02-13T23:58:39;100316.13;;;0.52;81.77
